createdAt,value
2022-09-10T00:01:04.098Z,78.62
2022-09-10T00:03:37.786Z,78.68
2022-09-10T00:06:11.960Z,78.71
2022-09-10T00:08:45.391Z,78.98
2022-09-10T00:11:21.157Z,78.90
2022-09-10T00:13:55.461Z,79.27
2022-09-10T00:16:29.470Z,79.43
2022-09-10T00:19:06.969Z,79.07
2022-09-10T00:21:42.554Z,79.27
2022-09-10T00:24:25.442Z,79.05
2022-09-10T00:27:00.002Z,78.99
2022-09-10T00:29:33.194Z,78.79
2022-09-10T00:32:07.093Z,78.87
2022-09-10T00:34:40.293Z,79.10
2022-09-10T00:37:13.705Z,79.09
2022-09-10T00:39:49.956Z,78.91
2022-09-10T00:42:23.239Z,78.74
2022-09-10T00:45:01.714Z,78.37
2022-09-10T00:47:39.171Z,78.37
2022-09-10T00:50:24.114Z,78.17
2022-09-10T00:53:02.605Z,77.94
2022-09-10T00:55:38.013Z,78.30
2022-09-10T00:58:14.814Z,78.55
2022-09-10T01:01:08.630Z,78.30
2022-09-10T01:03:43.465Z,78.43
2022-09-10T01:06:27.904Z,78.37
2022-09-10T01:09:04.675Z,78.30
2022-09-10T01:11:53.950Z,78.41
2022-09-10T01:14:44.622Z,78.39
2022-09-10T01:17:32.179Z,78.52
2022-09-10T01:20:41.535Z,78.67
2022-09-10T01:23:59.138Z,78.68
2022-09-10T01:26:55.406Z,78.76
2022-09-10T01:29:36.284Z,78.51
2022-09-10T01:32:15.798Z,78.35
2022-09-10T01:35:03.465Z,78.24
2022-09-10T01:37:40.192Z,78.15
2022-09-10T01:40:14.282Z,78.31
2022-09-10T01:42:48.026Z,78.20
2022-09-10T01:45:21.210Z,78.33
2022-09-10T01:48:15.986Z,78.78
2022-09-10T01:51:04.649Z,78.59
2022-09-10T01:54:06.534Z,78.59
2022-09-10T01:56:51.110Z,78.31
2022-09-10T01:59:30.503Z,78.26
2022-09-10T02:02:09.411Z,78.07
2022-09-10T02:04:44.124Z,78.07
2022-09-10T02:07:20.175Z,78.08
2022-09-10T02:09:55.145Z,77.79
2022-09-10T02:12:29.403Z,77.55
2022-09-10T02:15:29.049Z,77.71
2022-09-10T02:18:12.806Z,77.70
2022-09-10T02:20:47.415Z,77.29
2022-09-10T02:23:24.273Z,77.39
2022-09-10T02:26:06.614Z,77.62
2022-09-10T02:28:40.176Z,77.57
2022-09-10T02:31:16.234Z,77.87
2022-09-10T02:33:51.593Z,77.81
2022-09-10T02:36:26.617Z,77.82
2022-09-10T02:39:04.100Z,77.84
2022-09-10T02:41:41.207Z,77.74
2022-09-10T02:44:14.235Z,77.39
2022-09-10T02:46:49.689Z,77.21
2022-09-10T02:49:23.257Z,77.25
2022-09-10T02:51:57.346Z,77.02
2022-09-10T02:54:30.486Z,76.95
2022-09-10T02:57:06.553Z,76.95
2022-09-10T02:59:43.905Z,77.24
2022-09-10T03:02:17.384Z,76.94
2022-09-10T03:04:50.404Z,77.00
2022-09-10T03:07:23.712Z,76.96
2022-09-10T03:09:56.876Z,77.14
2022-09-10T03:12:30.209Z,77.07
2022-09-10T03:15:23.573Z,76.99
2022-09-10T03:17:56.910Z,77.13
2022-09-10T03:20:42.081Z,76.91
2022-09-10T03:23:15.348Z,76.86
2022-09-10T03:25:49.938Z,76.68
2022-09-10T03:28:30.330Z,76.55
2022-09-10T03:31:04.344Z,76.69
2022-09-10T03:33:39.449Z,76.85
2022-09-10T03:36:15.305Z,77.01
2022-09-10T03:38:49.353Z,77.20
2022-09-10T03:41:22.653Z,76.79
2022-09-10T03:43:57.717Z,76.95
2022-09-10T03:46:32.889Z,76.93
2022-09-10T03:49:09.146Z,77.17
2022-09-10T03:51:51.697Z,76.80
2022-09-10T03:54:25.013Z,76.75
2022-09-10T03:56:58.328Z,76.87
2022-09-10T03:59:31.514Z,76.86
2022-09-10T04:02:06.342Z,77.10
2022-09-10T04:04:41.064Z,77.04
2022-09-10T04:07:15.303Z,77.21
2022-09-10T04:09:48.215Z,77.52
2022-09-10T04:12:26.923Z,77.51
2022-09-10T04:15:01.850Z,77.69
2022-09-10T04:17:35.222Z,77.65
2022-09-10T04:20:09.924Z,77.84
2022-09-10T04:22:43.686Z,77.93
2022-09-10T04:25:21.531Z,77.90
2022-09-10T04:27:54.945Z,77.94
2022-09-10T04:30:38.039Z,78.14
2022-09-10T04:33:12.156Z,77.93
2022-09-10T04:35:47.504Z,77.94
2022-09-10T04:38:30.839Z,78.22
2022-09-10T04:41:07.109Z,78.26
2022-09-10T04:43:41.055Z,78.08
2022-09-10T04:46:14.947Z,78.00
2022-09-10T04:48:49.335Z,78.19
2022-09-10T04:51:26.307Z,78.46
2022-09-10T04:54:02.158Z,78.19
2022-09-10T04:56:38.731Z,77.97
2022-09-10T04:59:12.314Z,78.02
2022-09-10T05:01:45.570Z,78.04
2022-09-10T05:04:18.976Z,78.05
2022-09-10T05:06:53.589Z,78.16
2022-09-10T05:09:31.555Z,78.14
2022-09-10T05:12:07.206Z,78.04
2022-09-10T05:14:43.153Z,77.68
2022-09-10T05:17:17.085Z,77.51
2022-09-10T05:19:50.154Z,77.10
2022-09-10T05:22:33.700Z,77.33
2022-09-10T05:25:11.443Z,77.37
2022-09-10T05:27:44.686Z,77.46
2022-09-10T05:30:22.350Z,77.66
2022-09-10T05:32:56.033Z,77.61
2022-09-10T05:35:29.396Z,77.71
2022-09-10T05:38:02.922Z,77.89
2022-09-10T05:40:43.657Z,77.67
2022-09-10T05:43:17.485Z,77.58
2022-09-10T05:46:02.511Z,77.80
2022-09-10T05:48:41.747Z,77.57
2022-09-10T05:51:31.045Z,77.81
2022-09-10T05:54:09.307Z,78.08
2022-09-10T05:56:42.801Z,78.33
2022-09-10T05:59:16.136Z,78.19
2022-09-10T06:01:54.183Z,77.96
2022-09-10T06:04:28.456Z,77.92
2022-09-10T06:07:05.008Z,77.96
2022-09-10T06:09:58.667Z,77.77
2022-09-10T06:12:41.733Z,77.72
2022-09-10T06:15:15.348Z,77.55
2022-09-10T06:17:48.638Z,77.55
2022-09-10T06:20:30.744Z,77.71
2022-09-10T06:23:18.404Z,77.58
2022-09-10T06:26:04.661Z,77.53
2022-09-10T06:28:48.310Z,76.90
2022-09-10T06:31:41.727Z,77.17
2022-09-10T06:34:24.466Z,77.45
2022-09-10T06:37:07.747Z,77.45
2022-09-10T06:39:43.899Z,77.30
2022-09-10T06:42:17.562Z,77.56
2022-09-10T06:45:23.313Z,77.84
2022-09-10T06:48:50.171Z,77.85
2022-09-10T06:51:23.127Z,77.74
2022-09-10T06:53:57.224Z,77.64
2022-09-10T06:56:43.213Z,77.53
2022-09-10T06:59:17.507Z,77.14
2022-09-10T07:01:55.764Z,76.53
2022-09-10T07:04:29.247Z,76.93
2022-09-10T07:07:04.676Z,76.87
2022-09-10T07:09:38.658Z,76.65
2022-09-10T07:12:26.942Z,76.47
2022-09-10T07:15:12.781Z,76.67
2022-09-10T07:17:45.820Z,76.99
2022-09-10T07:20:19.452Z,77.24
2022-09-10T07:22:56.623Z,77.37
2022-09-10T07:25:31.599Z,77.36
2022-09-10T07:28:13.487Z,77.59
2022-09-10T07:30:49.453Z,77.67
2022-09-10T07:33:23.047Z,77.22
2022-09-10T07:35:56.262Z,77.37
2022-09-10T07:38:29.148Z,77.36
2022-09-10T07:41:16.305Z,77.11
2022-09-10T07:43:50.228Z,77.18
2022-09-10T07:46:25.872Z,76.97
2022-09-10T07:49:06.729Z,77.25
2022-09-10T07:51:40.030Z,77.26
2022-09-10T07:54:16.016Z,77.62
2022-09-10T07:56:53.757Z,77.72
2022-09-10T07:59:27.004Z,77.64
2022-09-10T08:02:04.328Z,77.02
2022-09-10T08:04:38.682Z,77.50
2022-09-10T08:07:24.825Z,77.56
2022-09-10T08:09:57.900Z,77.56
2022-09-10T08:12:31.243Z,77.51
2022-09-10T08:15:09.604Z,77.50
2022-09-10T08:17:44.125Z,77.19
2022-09-10T08:20:17.693Z,77.07
2022-09-10T08:22:56.423Z,77.16
2022-09-10T08:25:29.768Z,77.20
2022-09-10T08:28:05.821Z,77.26
2022-09-10T08:30:57.652Z,76.88
2022-09-10T08:33:31.730Z,76.80
2022-09-10T08:36:06.509Z,76.96
2022-09-10T08:38:41.345Z,77.38
2022-09-10T08:41:36.184Z,77.48
2022-09-10T08:44:18.060Z,76.72
2022-09-10T08:47:07.268Z,77.00
2022-09-10T08:49:46.324Z,77.29
2022-09-10T08:52:30.139Z,76.95
2022-09-10T08:55:29.531Z,76.58
2022-09-10T08:58:13.774Z,76.65
2022-09-10T09:00:54.860Z,76.54
2022-09-10T09:03:37.695Z,76.27
2022-09-10T09:06:13.264Z,76.20
2022-09-10T09:08:49.615Z,76.06
2022-09-10T09:11:37.414Z,76.40
2022-09-10T09:14:50.061Z,75.80
2022-09-10T09:17:56.635Z,75.86
2022-09-10T09:20:46.855Z,76.19
2022-09-10T09:24:12.127Z,76.33
2022-09-10T09:26:47.455Z,76.30
2022-09-10T09:29:25.898Z,76.31
2022-09-10T09:32:20.782Z,76.13
2022-09-10T09:35:02.881Z,75.98
2022-09-10T09:37:47.758Z,75.77
2022-09-10T09:40:37.186Z,76.16
2022-09-10T09:43:24.448Z,75.96
2022-09-10T09:46:02.144Z,75.83
2022-09-10T09:48:42.910Z,75.99
2022-09-10T09:51:22.593Z,75.94
2022-09-10T09:54:34.531Z,75.63
2022-09-10T09:57:00.095Z,75.76
2022-09-10T09:59:35.631Z,75.82
2022-09-10T10:02:15.632Z,75.69
2022-09-10T10:05:24.856Z,75.26
2022-09-10T10:08:33.837Z,75.48
2022-09-10T10:11:22.691Z,75.17
2022-09-10T10:14:15.915Z,75.05
2022-09-10T10:16:59.941Z,75.33
2022-09-10T10:20:02.724Z,75.57
2022-09-10T10:22:39.876Z,75.76
2022-09-10T10:25:41.968Z,75.74
2022-09-10T10:28:23.070Z,75.75
2022-09-10T10:31:05.013Z,75.45
2022-09-10T10:33:39.421Z,75.34
2022-09-10T10:36:23.187Z,75.38
2022-09-10T10:39:21.877Z,75.22
2022-09-10T10:42:04.725Z,75.00
2022-09-10T10:45:00.240Z,75.04
2022-09-10T10:48:05.165Z,74.89
2022-09-10T10:51:10.110Z,74.67
2022-09-10T10:54:07.983Z,74.68
2022-09-10T10:57:12.066Z,74.50
2022-09-10T11:00:01.398Z,74.50
2022-09-10T11:02:51.112Z,74.41
2022-09-10T11:05:38.790Z,74.23
2022-09-10T11:08:20.748Z,74.09
2022-09-10T11:11:01.769Z,73.98
2022-09-10T11:13:55.280Z,73.99
2022-09-10T11:16:48.789Z,74.13
2022-09-10T11:19:38.748Z,74.07
2022-09-10T11:22:20.559Z,73.60
2022-09-10T11:25:24.320Z,73.48
2022-09-10T11:28:23.450Z,73.24
2022-09-10T11:31:04.289Z,73.52
2022-09-10T11:33:46.527Z,73.80
2022-09-10T11:36:30.004Z,73.63
2022-09-10T11:39:17.558Z,73.61
2022-09-10T11:42:06.036Z,73.33
2022-09-10T11:44:53.372Z,73.43
2022-09-10T11:47:29.742Z,73.33
2022-09-10T11:50:11.479Z,73.31
2022-09-10T11:52:47.241Z,73.51
2022-09-10T11:55:21.656Z,73.09
2022-09-10T11:58:23.384Z,73.48
2022-09-10T12:01:07.604Z,73.56
2022-09-10T12:04:07.327Z,73.36
2022-09-10T12:06:52.641Z,73.28
2022-09-10T12:09:44.743Z,73.25
2022-09-10T12:12:24.241Z,73.11
2022-09-10T12:15:12.592Z,73.18
2022-09-10T12:18:14.165Z,73.02
2022-09-10T12:21:01.701Z,72.88
2022-09-10T12:23:56.112Z,72.85
2022-09-10T12:26:42.109Z,72.58
2022-09-10T12:29:38.625Z,72.53
2022-09-10T12:32:31.186Z,72.55
2022-09-10T12:35:47.361Z,72.67
2022-09-10T12:38:50.436Z,72.26
2022-09-10T12:42:01.325Z,72.39
2022-09-10T12:44:50.945Z,72.40
2022-09-10T12:47:53.491Z,72.36
2022-09-10T12:50:46.499Z,72.12
2022-09-10T12:53:50.714Z,72.24
2022-09-10T12:56:53.997Z,72.28
2022-09-10T13:00:04.905Z,72.10
2022-09-10T13:03:12.828Z,72.01
2022-09-10T13:05:59.480Z,71.92
2022-09-10T13:08:45.022Z,71.81
2022-09-10T13:11:24.216Z,71.92
2022-09-10T13:14:23.270Z,72.04
2022-09-10T13:16:57.355Z,72.07
2022-09-10T13:19:55.727Z,72.21
2022-09-10T13:23:04.474Z,72.45
2022-09-10T13:25:41.822Z,72.23
2022-09-10T13:28:50.919Z,72.28
2022-09-10T13:31:33.007Z,72.14
2022-09-10T13:34:33.736Z,72.09
2022-09-10T13:37:27.919Z,72.14
2022-09-10T13:40:43.682Z,72.11
2022-09-10T13:43:42.753Z,72.01
2022-09-10T13:46:28.730Z,71.98
2022-09-10T13:49:18.965Z,72.05
2022-09-10T13:51:55.562Z,72.04
2022-09-10T13:54:35.903Z,72.03
2022-09-10T13:57:21.014Z,72.15
2022-09-10T14:00:09.124Z,72.20
2022-09-10T14:02:56.484Z,71.85
2022-09-10T14:05:44.942Z,71.87
2022-09-10T14:08:25.020Z,71.74
2022-09-10T14:11:22.599Z,71.53
2022-09-10T14:14:09.914Z,71.61
2022-09-10T14:16:57.947Z,71.66
2022-09-10T14:19:36.915Z,71.43
2022-09-10T14:22:13.752Z,71.43
2022-09-10T14:24:53.977Z,71.52
2022-09-10T14:27:32.434Z,71.44
2022-09-10T14:30:29.864Z,71.54
2022-09-10T14:33:25.654Z,71.52
2022-09-10T14:36:01.085Z,71.62
2022-09-10T14:38:38.520Z,71.62
2022-09-10T14:41:24.939Z,71.54
2022-09-10T14:44:35.482Z,71.56
2022-09-10T14:47:25.020Z,71.30
2022-09-10T14:50:35.073Z,71.29
2022-09-10T14:53:08.163Z,71.22
2022-09-10T14:55:44.034Z,71.06
2022-09-10T14:58:37.755Z,70.97
2022-09-10T15:01:31.957Z,71.03
2022-09-10T15:04:23.935Z,71.07
2022-09-10T15:07:03.013Z,71.07
2022-09-10T15:09:36.555Z,71.26
2022-09-10T15:12:15.331Z,71.21
2022-09-10T15:14:48.746Z,71.29
2022-09-10T15:17:42.135Z,70.99
2022-09-10T15:20:18.906Z,70.92
2022-09-10T15:23:00.818Z,71.15
2022-09-10T15:25:40.896Z,71.24
2022-09-10T15:28:27.269Z,70.91
2022-09-10T15:31:01.544Z,71.04
2022-09-10T15:33:55.139Z,71.04
2022-09-10T15:36:40.228Z,71.07
2022-09-10T15:39:17.105Z,71.36
2022-09-10T15:42:00.989Z,71.34
2022-09-10T15:44:54.259Z,71.30
2022-09-10T15:47:27.980Z,71.32
2022-09-10T15:50:01.297Z,71.20
2022-09-10T15:52:34.458Z,71.38
2022-09-10T15:55:12.552Z,71.50
2022-09-10T15:57:45.814Z,71.27
2022-09-10T16:00:20.364Z,71.22
2022-09-10T16:02:55.305Z,71.30
2022-09-10T16:05:28.955Z,71.53
2022-09-10T16:08:05.619Z,71.40
2022-09-10T16:10:41.836Z,71.46
2022-09-10T16:13:27.351Z,71.32
2022-09-10T16:16:07.831Z,71.31
2022-09-10T16:18:41.275Z,71.23
2022-09-10T16:21:18.751Z,71.51
2022-09-10T16:23:57.011Z,71.52
2022-09-10T16:26:36.156Z,71.50
2022-09-10T16:29:30.097Z,71.59
2022-09-10T16:32:03.681Z,71.65
2022-09-10T16:34:57.572Z,71.53
2022-09-10T16:37:31.747Z,71.59
2022-09-10T16:40:11.372Z,71.69
2022-09-10T16:42:44.375Z,71.64
2022-09-10T16:45:20.647Z,71.80
2022-09-10T16:48:04.368Z,71.90
2022-09-10T16:50:46.898Z,71.97
2022-09-10T16:53:41.143Z,72.25
2022-09-10T16:56:18.039Z,72.26
2022-09-10T16:58:54.383Z,72.31
2022-09-10T17:01:28.409Z,72.39
2022-09-10T17:04:03.656Z,72.44
2022-09-10T17:06:38.343Z,72.17
2022-09-10T17:09:11.627Z,72.02
2022-09-10T17:11:44.758Z,72.08
2022-09-10T17:14:20.820Z,72.16
2022-09-10T17:16:56.774Z,72.22
2022-09-10T17:19:50.454Z,72.18
2022-09-10T17:22:23.631Z,72.03
2022-09-10T17:25:00.205Z,72.03
2022-09-10T17:27:33.477Z,72.25
2022-09-10T17:30:07.970Z,72.34
2022-09-10T17:32:41.561Z,72.42
2022-09-10T17:35:14.910Z,72.18
2022-09-10T17:37:48.962Z,72.34
2022-09-10T17:40:24.318Z,72.48
2022-09-10T17:43:00.916Z,72.70
2022-09-10T17:45:34.088Z,72.60
2022-09-10T17:48:07.576Z,72.52
2022-09-10T17:50:46.596Z,72.57
2022-09-10T17:53:32.234Z,72.84
2022-09-10T17:56:27.131Z,72.79
2022-09-10T17:59:05.500Z,72.62
2022-09-10T18:01:43.276Z,72.60
2022-09-10T18:04:27.963Z,72.49
2022-09-10T18:07:13.288Z,72.65
2022-09-10T18:09:47.435Z,72.69
2022-09-10T18:12:23.973Z,72.68
2022-09-10T18:15:00.562Z,72.67
2022-09-10T18:17:54.839Z,72.56
2022-09-10T18:20:48.470Z,72.54
2022-09-10T18:23:21.929Z,72.75
2022-09-10T18:25:56.039Z,72.67
2022-09-10T18:28:32.526Z,72.80
2022-09-10T18:31:07.846Z,72.79
2022-09-10T18:33:46.856Z,72.70
2022-09-10T18:36:24.707Z,72.65
2022-09-10T18:39:03.660Z,72.70
2022-09-10T18:41:48.778Z,72.43
2022-09-10T18:44:38.414Z,72.59
2022-09-10T18:47:34.294Z,72.58
2022-09-10T18:50:28.780Z,72.76
2022-09-10T18:53:02.091Z,72.71
2022-09-10T18:55:35.497Z,72.79
2022-09-10T18:58:29.138Z,72.77
2022-09-10T19:01:25.939Z,72.69
2022-09-10T19:04:22.269Z,72.41
2022-09-10T19:07:07.330Z,72.65
2022-09-10T19:09:44.129Z,72.60
2022-09-10T19:12:38.025Z,72.62
2022-09-10T19:15:14.228Z,72.55
2022-09-10T19:17:47.927Z,72.44
2022-09-10T19:20:41.821Z,72.44
2022-09-10T19:23:24.544Z,72.32
2022-09-10T19:26:10.197Z,72.40
2022-09-10T19:28:48.350Z,72.11
2022-09-10T19:31:23.635Z,72.28
2022-09-10T19:34:00.612Z,72.26
2022-09-10T19:36:54.634Z,72.17
2022-09-10T19:39:41.413Z,72.15
2022-09-10T19:42:35.288Z,72.15
2022-09-10T19:45:29.065Z,72.20
2022-09-10T19:48:23.009Z,72.32
2022-09-10T19:50:56.369Z,72.27
2022-09-10T19:53:51.422Z,72.16
2022-09-10T19:56:38.107Z,72.28
2022-09-10T19:59:12.076Z,72.06
2022-09-10T20:02:06.389Z,72.02
2022-09-10T20:04:53.816Z,71.90
2022-09-10T20:07:31.826Z,71.95
2022-09-10T20:10:09.278Z,71.87
2022-09-10T20:12:42.770Z,71.93
2022-09-10T20:15:19.252Z,71.78
2022-09-10T20:17:53.763Z,71.77
2022-09-10T20:20:48.051Z,71.98
2022-09-10T20:23:31.482Z,72.11
2022-09-10T20:26:13.623Z,72.08
2022-09-10T20:28:51.397Z,72.15
2022-09-10T20:31:35.753Z,72.33
2022-09-10T20:34:10.297Z,72.24
2022-09-10T20:36:43.848Z,72.20
2022-09-10T20:39:19.954Z,72.21
2022-09-10T20:41:53.523Z,72.22
2022-09-10T20:44:30.404Z,72.33
2022-09-10T20:47:13.209Z,72.57
2022-09-10T20:49:50.117Z,72.53
2022-09-10T20:52:23.827Z,72.73
2022-09-10T20:55:00.439Z,72.64
2022-09-10T20:57:34.121Z,72.68
2022-09-10T21:00:09.959Z,72.71
2022-09-10T21:02:43.299Z,72.86
2022-09-10T21:05:19.529Z,72.97
2022-09-10T21:07:53.656Z,73.20
2022-09-10T21:10:29.342Z,73.22
2022-09-10T21:13:03.951Z,73.22
2022-09-10T21:15:39.836Z,73.12
2022-09-10T21:18:17.998Z,73.26
2022-09-10T21:20:51.148Z,73.39
2022-09-10T21:23:27.308Z,73.25
2022-09-10T21:26:00.452Z,73.40
2022-09-10T21:28:33.909Z,73.34
2022-09-10T21:31:11.212Z,73.51
2022-09-10T21:33:46.628Z,73.48
2022-09-10T21:36:35.034Z,73.43
2022-09-10T21:39:16.034Z,73.62
2022-09-10T21:41:51.646Z,73.61
2022-09-10T21:44:27.856Z,73.69
2022-09-10T21:47:01.871Z,73.58
2022-09-10T21:49:35.199Z,73.58
2022-09-10T21:52:09.583Z,73.45
2022-09-10T21:54:42.723Z,73.51
2022-09-10T21:57:19.903Z,73.46
2022-09-10T21:59:56.335Z,73.36
2022-09-10T22:02:31.831Z,73.59
2022-09-10T22:05:25.330Z,73.66
2022-09-10T22:07:58.563Z,73.81
2022-09-10T22:10:34.541Z,73.76
2022-09-10T22:13:07.783Z,73.78
2022-09-10T22:15:54.335Z,73.84
2022-09-10T22:18:47.695Z,73.76
2022-09-10T22:21:21.373Z,73.75
2022-09-10T22:23:58.333Z,73.85
2022-09-10T22:26:51.925Z,73.69
2022-09-10T22:29:35.335Z,73.60
2022-09-10T22:32:24.908Z,73.61
2022-09-10T22:35:10.774Z,73.64
2022-09-10T22:37:57.650Z,73.74
2022-09-10T22:40:51.713Z,73.67
2022-09-10T22:43:29.922Z,73.78
2022-09-10T22:46:03.342Z,73.93
2022-09-10T22:48:41.115Z,73.84
2022-09-10T22:51:36.586Z,73.80
2022-09-10T22:54:19.999Z,73.84
2022-09-10T22:56:58.843Z,73.87
2022-09-10T22:59:43.335Z,73.99
2022-09-10T23:02:36.829Z,74.14
2022-09-10T23:05:13.065Z,74.06
2022-09-10T23:07:46.374Z,74.12
2022-09-10T23:10:40.346Z,74.11
2022-09-10T23:13:24.598Z,74.10
2022-09-10T23:16:00.723Z,74.05
2022-09-10T23:18:36.602Z,74.18
2022-09-10T23:21:19.551Z,74.40
2022-09-10T23:24:05.415Z,74.40
2022-09-10T23:26:41.787Z,74.49
2022-09-10T23:29:19.000Z,74.64
2022-09-10T23:31:53.633Z,74.69
2022-09-10T23:34:27.000Z,74.63
2022-09-10T23:37:00.310Z,74.63
2022-09-10T23:39:37.386Z,74.51
2022-09-10T23:42:13.416Z,74.55
2022-09-10T23:44:50.258Z,74.78
2022-09-10T23:47:33.853Z,74.91
2022-09-10T23:50:11.193Z,74.94
2022-09-10T23:52:54.274Z,74.81
2022-09-10T23:55:30.039Z,74.64
2022-09-10T23:58:05.437Z,74.65
